createdAt,value
2017-12-31T00:00:12.536Z,26.93
2017-12-31T00:02:39.938Z,39.43
2017-12-31T00:05:07.378Z,26.50
2017-12-31T00:07:34.820Z,35.40
2017-12-31T00:10:02.246Z,33.00
2017-12-31T00:12:29.730Z,35.20
2017-12-31T00:14:57.883Z,34.43
2017-12-31T00:17:26.061Z,28.57
2017-12-31T00:19:53.489Z,29.70
2017-12-31T00:22:20.941Z,31.30
2017-12-31T00:24:48.416Z,42.37
2017-12-31T00:27:15.835Z,26.07
2017-12-31T00:29:43.353Z,22.77
2017-12-31T00:32:10.793Z,27.90
2017-12-31T00:34:38.965Z,33.00
2017-12-31T00:37:07.150Z,29.20
2017-12-31T00:39:34.561Z,26.67
2017-12-31T00:42:02.033Z,27.10
2017-12-31T00:44:29.496Z,33.50
2017-12-31T00:46:56.928Z,31.37
2017-12-31T00:49:25.152Z,33.50
2017-12-31T00:51:52.565Z,28.00
2017-12-31T00:54:20.088Z,35.37
2017-12-31T00:56:47.497Z,26.03
2017-12-31T00:59:15.681Z,34.20
2017-12-31T01:01:43.105Z,31.50
2017-12-31T01:04:10.588Z,24.70
2017-12-31T01:06:37.989Z,27.10
2017-12-31T01:09:05.504Z,30.93
2017-12-31T01:11:32.918Z,31.73
2017-12-31T01:14:00.334Z,32.37
2017-12-31T01:16:27.756Z,24.90
2017-12-31T01:18:55.199Z,32.53
2017-12-31T01:21:22.607Z,29.03
2017-12-31T01:23:50.143Z,32.30
2017-12-31T01:26:17.558Z,38.90
2017-12-31T01:28:45.745Z,28.50
2017-12-31T01:31:13.948Z,35.33
2017-12-31T01:33:41.358Z,42.57
2017-12-31T01:36:08.777Z,24.40
2017-12-31T01:38:36.981Z,32.77
2017-12-31T01:41:04.461Z,30.93
2017-12-31T01:43:31.870Z,34.20
2017-12-31T01:46:00.793Z,34.00
2017-12-31T01:48:28.186Z,25.10
2017-12-31T01:50:55.602Z,39.43
2017-12-31T01:53:23.008Z,37.10
2017-12-31T01:55:50.414Z,27.13
2017-12-31T01:58:17.821Z,29.73
2017-12-31T02:00:45.325Z,33.30
2017-12-31T02:03:12.752Z,27.60
2017-12-31T02:05:40.171Z,18.53
2017-12-31T02:08:07.616Z,30.00
2017-12-31T02:10:35.848Z,31.43
2017-12-31T02:13:03.283Z,30.47
2017-12-31T02:15:30.764Z,31.03
2017-12-31T02:17:58.228Z,27.73
2017-12-31T02:20:26.376Z,31.70
2017-12-31T02:22:54.591Z,34.83
2017-12-31T02:25:22.829Z,25.60
2017-12-31T02:27:50.254Z,36.13
2017-12-31T02:30:17.662Z,39.23
2017-12-31T02:32:45.089Z,35.60
2017-12-31T02:35:12.530Z,39.00
2017-12-31T02:37:40.720Z,34.37
2017-12-31T02:40:08.885Z,37.00
2017-12-31T02:42:36.401Z,43.93
2017-12-31T02:45:03.811Z,37.30
2017-12-31T02:47:31.336Z,33.73
2017-12-31T02:49:58.741Z,57.70
2017-12-31T02:52:26.180Z,43.30
2017-12-31T02:54:53.642Z,44.77
2017-12-31T02:57:21.047Z,35.67
2017-12-31T02:59:48.473Z,37.10
2017-12-31T03:02:15.888Z,51.43
2017-12-31T03:04:43.297Z,43.80
2017-12-31T03:07:10.719Z,46.23
2017-12-31T03:09:38.157Z,34.20
2017-12-31T03:12:05.577Z,42.53
2017-12-31T03:14:32.998Z,50.60
2017-12-31T03:17:00.389Z,57.33
2017-12-31T03:19:27.819Z,41.47
2017-12-31T03:21:55.232Z,40.87
2017-12-31T03:24:22.749Z,43.60
2017-12-31T03:26:50.167Z,46.90
2017-12-31T03:29:17.583Z,48.93
2017-12-31T03:31:45.069Z,57.23
2017-12-31T03:34:12.758Z,44.10
2017-12-31T03:36:40.191Z,42.10
2017-12-31T03:39:07.606Z,43.50
2017-12-31T03:41:35.020Z,39.73
2017-12-31T03:44:03.212Z,37.67
2017-12-31T03:46:30.619Z,48.77
2017-12-31T03:48:58.033Z,42.60
2017-12-31T03:51:26.209Z,44.13
2017-12-31T03:53:53.647Z,57.77
2017-12-31T03:56:21.037Z,43.50
2017-12-31T03:58:48.496Z,54.17
2017-12-31T04:01:15.912Z,66.87
2017-12-31T04:03:43.490Z,66.53
2017-12-31T04:06:10.954Z,51.60
2017-12-31T04:08:38.373Z,58.07
2017-12-31T04:11:05.782Z,55.63
2017-12-31T04:13:33.269Z,53.47
2017-12-31T04:16:00.681Z,54.50
2017-12-31T04:18:28.209Z,67.73
2017-12-31T04:20:55.623Z,48.83
2017-12-31T04:23:23.137Z,59.13
2017-12-31T04:25:50.558Z,43.10
2017-12-31T04:28:17.964Z,52.60
2017-12-31T04:30:45.536Z,49.37
2017-12-31T04:33:13.230Z,52.33
2017-12-31T04:35:40.659Z,48.00
2017-12-31T04:38:08.838Z,48.70
2017-12-31T04:40:36.350Z,59.80
2017-12-31T04:43:03.781Z,52.40
2017-12-31T04:45:31.277Z,41.57
2017-12-31T04:47:58.746Z,52.33
2017-12-31T04:50:26.176Z,50.37
2017-12-31T04:52:55.093Z,50.20
2017-12-31T04:55:23.266Z,56.10
2017-12-31T04:57:50.679Z,44.20
2017-12-31T05:00:18.152Z,45.60
2017-12-31T05:02:45.557Z,45.63
2017-12-31T05:05:13.800Z,61.97
2017-12-31T05:07:41.298Z,46.80
2017-12-31T05:10:08.682Z,63.47
2017-12-31T05:12:36.108Z,47.80
2017-12-31T05:15:03.526Z,41.27
2017-12-31T05:17:30.929Z,58.23
2017-12-31T05:19:58.381Z,50.87
2017-12-31T05:22:26.562Z,50.27
2017-12-31T05:24:54.884Z,40.30
2017-12-31T05:27:22.294Z,44.30
2017-12-31T05:29:49.721Z,35.20
2017-12-31T05:32:17.149Z,30.43
2017-12-31T05:34:44.649Z,30.60
2017-12-31T05:37:12.137Z,32.00
2017-12-31T05:39:39.593Z,42.07
2017-12-31T05:42:07.006Z,28.90
2017-12-31T05:44:34.452Z,29.10
2017-12-31T05:47:01.834Z,36.53
2017-12-31T05:49:29.258Z,31.57
2017-12-31T05:51:56.677Z,40.57
2017-12-31T05:54:24.201Z,25.43
2017-12-31T05:56:51.619Z,28.73
2017-12-31T05:59:19.136Z,37.77
2017-12-31T06:01:46.558Z,33.57
2017-12-31T06:04:13.985Z,30.33
2017-12-31T06:06:41.404Z,35.77
2017-12-31T06:09:09.637Z,38.17
2017-12-31T06:11:37.098Z,33.30
2017-12-31T06:14:04.509Z,33.73
2017-12-31T06:16:31.935Z,37.93
2017-12-31T06:18:59.404Z,33.27
2017-12-31T06:21:26.805Z,37.20
2017-12-31T06:23:54.217Z,33.27
2017-12-31T06:26:22.401Z,33.77
2017-12-31T06:28:50.565Z,35.90
2017-12-31T06:31:17.975Z,30.93
2017-12-31T06:33:45.450Z,27.57
2017-12-31T06:36:12.864Z,27.43
2017-12-31T06:38:40.276Z,25.00
2017-12-31T06:41:07.698Z,24.03
2017-12-31T06:43:35.118Z,22.63
2017-12-31T06:46:02.526Z,27.00
2017-12-31T06:48:29.940Z,19.90
2017-12-31T06:50:57.425Z,23.97
2017-12-31T06:53:24.837Z,25.40
2017-12-31T06:55:52.249Z,19.73
2017-12-31T06:58:19.665Z,20.10
2017-12-31T07:00:47.101Z,24.27
2017-12-31T07:03:14.525Z,27.70
2017-12-31T07:05:41.944Z,23.77
2017-12-31T07:08:09.373Z,25.07
2017-12-31T07:10:37.609Z,19.00
2017-12-31T07:13:05.033Z,22.00
2017-12-31T07:15:33.220Z,31.83
2017-12-31T07:18:01.429Z,20.80
2017-12-31T07:20:29.589Z,21.73
2017-12-31T07:22:57.761Z,22.43
2017-12-31T07:25:25.259Z,22.73
2017-12-31T07:27:52.665Z,30.13
2017-12-31T07:30:20.082Z,33.10
2017-12-31T07:32:48.293Z,23.43
2017-12-31T07:35:15.754Z,20.77
2017-12-31T07:37:43.161Z,35.23
2017-12-31T07:40:10.589Z,27.80
2017-12-31T07:42:38.020Z,28.90
2017-12-31T07:45:06.937Z,33.23
2017-12-31T07:47:35.114Z,30.17
2017-12-31T07:50:02.547Z,27.60
2017-12-31T07:52:30.006Z,19.67
2017-12-31T07:54:57.435Z,28.30
2017-12-31T07:57:25.606Z,19.53
2017-12-31T07:59:53.804Z,25.77
2017-12-31T08:02:21.977Z,19.33
2017-12-31T08:04:49.398Z,11.80
2017-12-31T08:07:16.853Z,15.47
2017-12-31T08:09:44.269Z,13.63
2017-12-31T08:12:11.672Z,9.33
2017-12-31T08:14:39.102Z,11.33
2017-12-31T08:17:06.510Z,9.50
2017-12-31T08:19:33.937Z,6.67
2017-12-31T08:22:01.461Z,8.53
2017-12-31T08:24:28.865Z,5.57
2017-12-31T08:26:56.293Z,11.20
2017-12-31T08:29:23.762Z,3.60
2017-12-31T08:31:51.232Z,6.03
2017-12-31T08:34:18.706Z,4.67
2017-12-31T08:36:46.141Z,3.43
2017-12-31T08:39:20.026Z,2.47
2017-12-31T08:44:22.081Z,6.50
2017-12-31T08:46:49.582Z,5.07
2017-12-31T08:49:17.037Z,4.67
2017-12-31T08:51:44.483Z,2.83
2017-12-31T08:54:12.685Z,2.73
2017-12-31T08:56:40.163Z,4.60
2017-12-31T08:59:07.629Z,2.80
2017-12-31T09:01:35.082Z,3.80
2017-12-31T09:04:03.262Z,2.93
2017-12-31T09:06:31.433Z,2.43
2017-12-31T09:08:59.614Z,1.87
2017-12-31T09:11:27.789Z,4.40
2017-12-31T09:13:55.232Z,3.40
2017-12-31T09:16:22.667Z,5.10
2017-12-31T09:18:50.069Z,6.07
2017-12-31T09:21:17.537Z,5.70
2017-12-31T09:23:44.977Z,6.07
2017-12-31T09:26:12.409Z,6.50
2017-12-31T09:28:39.811Z,4.60
2017-12-31T09:31:07.258Z,2.97
2017-12-31T09:33:34.678Z,4.20
2017-12-31T09:36:02.081Z,6.80
2017-12-31T09:38:29.502Z,12.70
2017-12-31T09:40:56.918Z,9.40
2017-12-31T09:43:25.106Z,6.70
2017-12-31T09:45:54.017Z,7.00
2017-12-31T09:48:22.239Z,9.53
2017-12-31T09:50:49.706Z,7.57
2017-12-31T09:53:17.141Z,13.27
2017-12-31T09:55:45.336Z,8.50
2017-12-31T09:58:13.506Z,12.87
2017-12-31T10:00:40.970Z,11.03
2017-12-31T10:03:08.418Z,15.80
2017-12-31T10:05:35.825Z,11.87
2017-12-31T10:08:04.021Z,15.53
2017-12-31T10:10:31.517Z,9.60
2017-12-31T10:12:59.776Z,9.60
2017-12-31T10:15:27.606Z,13.70
2017-12-31T10:17:55.066Z,10.73
2017-12-31T10:20:22.524Z,20.13
2017-12-31T10:22:49.977Z,13.87
2017-12-31T10:25:17.436Z,15.33
2017-12-31T10:27:44.878Z,7.40
2017-12-31T10:30:12.373Z,8.53
2017-12-31T10:32:39.781Z,10.43
2017-12-31T10:35:07.197Z,14.37
2017-12-31T10:37:35.392Z,10.10
2017-12-31T10:40:02.805Z,13.33
2017-12-31T10:42:30.247Z,8.50
2017-12-31T10:44:57.708Z,7.87
2017-12-31T10:47:25.114Z,8.93
2017-12-31T10:49:52.585Z,9.70
2017-12-31T10:52:19.983Z,20.97
2017-12-31T10:54:47.445Z,10.70
2017-12-31T10:57:14.962Z,9.70
2017-12-31T10:59:42.613Z,15.53
2017-12-31T11:02:10.802Z,14.20
2017-12-31T11:04:38.204Z,14.33
2017-12-31T11:07:05.721Z,11.17
2017-12-31T11:09:33.925Z,11.03
2017-12-31T11:12:01.340Z,10.00
2017-12-31T11:14:28.779Z,9.63
2017-12-31T11:16:56.299Z,11.67
2017-12-31T11:19:23.729Z,16.43
2017-12-31T11:21:51.133Z,11.07
2017-12-31T11:24:18.567Z,8.37
2017-12-31T11:26:45.976Z,8.27
2017-12-31T11:29:13.414Z,11.80
2017-12-31T11:31:40.827Z,13.20
2017-12-31T11:34:09.250Z,16.87
2017-12-31T11:36:36.677Z,20.17
2017-12-31T11:39:04.854Z,13.70
2017-12-31T11:41:32.291Z,8.83
2017-12-31T11:44:00.509Z,8.00
2017-12-31T11:46:29.481Z,8.53
2017-12-31T11:48:56.935Z,11.47
2017-12-31T11:51:24.353Z,12.80
2017-12-31T11:53:51.863Z,10.47
2017-12-31T11:56:20.046Z,12.27
2017-12-31T11:58:47.465Z,9.20
2017-12-31T12:01:14.881Z,12.30
2017-12-31T12:03:42.293Z,8.47
2017-12-31T12:06:09.716Z,12.93
2017-12-31T12:08:37.194Z,7.57
2017-12-31T12:11:04.599Z,14.80
2017-12-31T12:13:32.022Z,9.93
2017-12-31T12:15:59.467Z,9.80
2017-12-31T12:18:27.645Z,8.20
2017-12-31T12:20:55.857Z,9.00
2017-12-31T12:23:23.285Z,12.23
2017-12-31T12:25:50.702Z,20.43
2017-12-31T12:28:18.178Z,12.83
2017-12-31T12:30:45.593Z,14.40
2017-12-31T12:33:13.107Z,10.30
2017-12-31T12:35:40.512Z,11.07
2017-12-31T12:38:07.983Z,12.70
2017-12-31T12:40:35.413Z,12.73
2017-12-31T12:43:02.819Z,12.27
2017-12-31T12:45:30.249Z,8.60
2017-12-31T12:47:58.401Z,14.30
2017-12-31T12:50:25.846Z,10.60
2017-12-31T12:52:53.268Z,8.00
2017-12-31T12:55:21.622Z,7.23
2017-12-31T12:57:48.996Z,9.43
2017-12-31T13:00:16.406Z,10.00
2017-12-31T13:02:43.853Z,7.23
2017-12-31T13:05:11.273Z,9.93
2017-12-31T13:07:38.674Z,7.60
2017-12-31T13:10:06.877Z,9.60
2017-12-31T13:12:34.281Z,7.83
2017-12-31T13:15:01.710Z,5.60
2017-12-31T13:17:29.135Z,10.93
2017-12-31T13:19:56.661Z,10.30
2017-12-31T13:22:24.825Z,11.27
2017-12-31T13:24:53.028Z,11.67
2017-12-31T13:27:20.445Z,7.67
2017-12-31T13:29:48.617Z,8.37
2017-12-31T13:32:16.030Z,6.67
2017-12-31T13:34:44.244Z,10.77
2017-12-31T13:37:11.794Z,7.47
2017-12-31T13:39:39.276Z,10.97
2017-12-31T13:42:06.723Z,10.60
2017-12-31T13:44:34.885Z,9.57
2017-12-31T13:47:02.298Z,9.30
2017-12-31T13:49:29.705Z,9.37
2017-12-31T13:51:57.113Z,8.23
2017-12-31T13:54:25.290Z,9.03
2017-12-31T13:56:53.457Z,5.87
2017-12-31T13:59:20.880Z,5.57
2017-12-31T14:01:48.286Z,4.90
2017-12-31T14:04:15.805Z,11.27
2017-12-31T14:06:43.235Z,3.63
2017-12-31T14:09:10.663Z,6.00
2017-12-31T14:11:38.146Z,6.20
2017-12-31T14:14:05.581Z,6.80
2017-12-31T14:16:32.997Z,11.83
2017-12-31T14:19:00.421Z,8.90
2017-12-31T14:21:27.871Z,6.17
2017-12-31T14:23:56.038Z,12.83
2017-12-31T14:26:24.425Z,5.80
2017-12-31T14:28:52.526Z,5.90
2017-12-31T14:31:20.694Z,5.70
2017-12-31T14:33:48.212Z,8.77
2017-12-31T14:36:15.639Z,5.50
2017-12-31T14:38:44.074Z,5.17
2017-12-31T14:41:11.490Z,5.17
2017-12-31T14:43:38.920Z,7.43
2017-12-31T14:46:06.360Z,6.13
2017-12-31T14:48:34.532Z,11.70
2017-12-31T14:51:01.961Z,7.87
2017-12-31T14:53:29.428Z,5.90
2017-12-31T14:55:56.829Z,6.17
2017-12-31T14:58:24.337Z,4.30
2017-12-31T15:00:51.744Z,13.87
2017-12-31T15:03:19.157Z,7.53
2017-12-31T15:05:47.359Z,4.60
2017-12-31T15:08:14.778Z,5.10
2017-12-31T15:10:42.189Z,5.10
2017-12-31T15:13:09.653Z,3.60
2017-12-31T15:15:37.058Z,6.40
2017-12-31T15:18:04.514Z,11.03
2017-12-31T15:20:31.947Z,5.27
2017-12-31T15:23:00.874Z,4.40
2017-12-31T15:25:28.260Z,5.30
2017-12-31T15:27:55.669Z,9.17
2017-12-31T15:30:23.844Z,5.20
2017-12-31T15:32:52.079Z,7.90
2017-12-31T15:35:19.754Z,10.57
2017-12-31T15:37:47.209Z,8.43
2017-12-31T15:40:14.629Z,3.07
2017-12-31T15:42:42.051Z,5.47
2017-12-31T15:45:09.457Z,5.10
2017-12-31T15:47:37.026Z,9.63
2017-12-31T15:50:04.427Z,6.47
2017-12-31T15:52:31.827Z,7.33
2017-12-31T15:54:59.293Z,8.13
2017-12-31T15:57:27.441Z,6.63
2017-12-31T15:59:55.654Z,7.10
2017-12-31T16:02:23.141Z,3.30
2017-12-31T16:04:50.545Z,9.13
2017-12-31T16:07:18.081Z,11.97
2017-12-31T16:09:45.537Z,20.97
2017-12-31T16:12:13.011Z,10.43
2017-12-31T16:14:40.478Z,8.37
2017-12-31T16:17:08.649Z,5.57
2017-12-31T16:19:36.061Z,4.47
2017-12-31T16:22:03.498Z,7.37
2017-12-31T16:24:30.986Z,6.30
2017-12-31T16:26:58.408Z,8.43
2017-12-31T16:29:25.810Z,4.80
2017-12-31T16:31:53.253Z,5.03
2017-12-31T16:34:21.426Z,3.80
2017-12-31T16:36:49.609Z,4.23
2017-12-31T16:39:17.790Z,6.07
2017-12-31T16:41:45.305Z,5.03
2017-12-31T16:44:12.770Z,10.60
2017-12-31T16:46:40.172Z,5.83
2017-12-31T16:49:07.612Z,12.40
2017-12-31T16:51:35.037Z,4.23
2017-12-31T16:54:03.252Z,6.10
2017-12-31T16:56:30.649Z,7.40
2017-12-31T16:58:58.098Z,7.60
2017-12-31T17:01:25.495Z,11.50
2017-12-31T17:03:52.902Z,7.30
2017-12-31T17:06:21.112Z,5.40
2017-12-31T17:08:49.353Z,11.80
2017-12-31T17:11:16.786Z,23.60
2017-12-31T17:13:44.187Z,6.73
2017-12-31T17:16:11.802Z,10.27
2017-12-31T17:18:39.233Z,6.97
2017-12-31T17:21:06.638Z,15.00
2017-12-31T17:23:34.071Z,10.30
2017-12-31T17:26:01.467Z,8.43
2017-12-31T17:28:29.689Z,9.20
2017-12-31T17:30:57.820Z,9.97
2017-12-31T17:33:26.052Z,7.57
2017-12-31T17:35:53.460Z,10.97
2017-12-31T17:38:20.976Z,18.50
2017-12-31T17:40:48.378Z,11.07
2017-12-31T17:43:15.803Z,13.00
2017-12-31T17:45:43.307Z,9.63
2017-12-31T17:48:10.751Z,9.80
2017-12-31T17:50:38.149Z,8.53
2017-12-31T17:53:05.790Z,11.57
2017-12-31T17:55:33.270Z,12.97
2017-12-31T17:58:00.681Z,7.57
2017-12-31T18:00:28.102Z,6.63
2017-12-31T18:02:56.265Z,8.50
2017-12-31T18:05:24.459Z,7.40
2017-12-31T18:07:52.649Z,7.50
2017-12-31T18:10:20.836Z,9.67
2017-12-31T18:12:48.415Z,12.33
2017-12-31T18:15:15.873Z,11.90
2017-12-31T18:17:43.353Z,5.57
2017-12-31T18:20:10.813Z,6.57
2017-12-31T18:22:38.217Z,7.27
2017-12-31T18:25:05.640Z,12.87
2017-12-31T18:27:33.046Z,7.03
2017-12-31T18:30:00.493Z,6.17
2017-12-31T18:32:27.961Z,7.87
2017-12-31T18:34:55.433Z,9.13
2017-12-31T18:37:22.829Z,8.70
2017-12-31T18:39:50.255Z,7.43
2017-12-31T18:42:18.430Z,8.70
2017-12-31T18:44:46.621Z,12.20
2017-12-31T18:47:14.132Z,5.53
2017-12-31T18:49:41.669Z,18.73
2017-12-31T18:52:09.161Z,10.97
2017-12-31T18:54:37.362Z,11.47
2017-12-31T18:57:04.769Z,6.33
2017-12-31T18:59:32.949Z,6.43
2017-12-31T19:02:00.361Z,8.83
2017-12-31T19:04:27.786Z,8.53
2017-12-31T19:06:55.956Z,6.37
2017-12-31T19:09:23.489Z,9.03
2017-12-31T19:11:50.892Z,9.33
2017-12-31T19:14:18.292Z,6.63
2017-12-31T19:16:46.482Z,9.10
2017-12-31T19:19:14.693Z,5.03
2017-12-31T19:21:42.106Z,4.80
2017-12-31T19:24:09.652Z,5.83
2017-12-31T19:26:37.053Z,6.07
2017-12-31T19:29:04.559Z,19.50
2017-12-31T19:31:32.025Z,7.37
2017-12-31T19:33:59.499Z,4.97
2017-12-31T19:36:26.913Z,7.50
2017-12-31T19:38:54.330Z,5.73
2017-12-31T19:41:21.741Z,4.33
2017-12-31T19:43:49.253Z,8.07
2017-12-31T19:46:16.641Z,8.43
2017-12-31T19:48:44.068Z,6.17
2017-12-31T19:51:11.746Z,10.40
2017-12-31T19:53:39.158Z,19.10
2017-12-31T19:56:06.585Z,17.20
2017-12-31T19:58:34.750Z,41.40
2017-12-31T20:01:02.170Z,33.70
2017-12-31T20:03:29.581Z,26.27
2017-12-31T20:05:57.001Z,19.00
2017-12-31T20:08:24.478Z,17.70
2017-12-31T20:10:51.896Z,16.53
2017-12-31T20:13:19.321Z,20.60
2017-12-31T20:15:46.729Z,13.47
2017-12-31T20:18:14.163Z,19.97
2017-12-31T20:20:41.561Z,16.27
2017-12-31T20:23:08.975Z,18.07
2017-12-31T20:25:36.381Z,15.60
2017-12-31T20:28:03.818Z,14.73
2017-12-31T20:30:31.229Z,16.27
2017-12-31T20:32:58.683Z,15.50
2017-12-31T20:35:26.128Z,18.20
2017-12-31T20:37:53.549Z,17.10
2017-12-31T20:40:21.741Z,13.47
2017-12-31T20:42:50.658Z,9.27
2017-12-31T20:45:18.867Z,11.17
2017-12-31T20:47:46.285Z,16.03
2017-12-31T20:50:13.698Z,17.90
2017-12-31T20:52:41.196Z,16.23
2017-12-31T20:55:09.454Z,17.40
2017-12-31T20:57:36.935Z,20.20
2017-12-31T21:00:04.345Z,40.17
2017-12-31T21:02:31.761Z,28.00
2017-12-31T21:04:59.981Z,40.53
2017-12-31T21:07:27.420Z,19.23
2017-12-31T21:09:54.845Z,18.20
2017-12-31T21:12:23.792Z,21.00
2017-12-31T21:14:51.949Z,22.70
2017-12-31T21:17:20.153Z,19.43
2017-12-31T21:19:47.632Z,16.53
2017-12-31T21:22:15.819Z,30.30
2017-12-31T21:24:43.242Z,19.20
2017-12-31T21:27:10.654Z,16.33
2017-12-31T21:29:38.070Z,17.17
2017-12-31T21:32:05.493Z,13.00
2017-12-31T21:34:32.919Z,30.67
2017-12-31T21:37:00.336Z,22.20
2017-12-31T21:39:27.781Z,19.43
2017-12-31T21:41:55.937Z,20.00
2017-12-31T21:44:24.124Z,17.13
2017-12-31T21:46:53.041Z,19.03
2017-12-31T21:49:21.218Z,14.03
2017-12-31T21:51:48.628Z,20.63
2017-12-31T21:54:16.057Z,23.00
2017-12-31T21:56:44.274Z,29.13
2017-12-31T21:59:11.882Z,27.97
2017-12-31T22:01:39.314Z,42.37
2017-12-31T22:04:06.793Z,30.37
2017-12-31T22:06:34.210Z,15.87
2017-12-31T22:09:01.726Z,30.93
2017-12-31T22:11:29.149Z,36.33
2017-12-31T22:13:58.071Z,15.10
2017-12-31T22:16:26.272Z,6.70
2017-12-31T22:18:53.678Z,12.00
2017-12-31T22:21:21.109Z,6.40
2017-12-31T22:23:48.581Z,7.70
2017-12-31T22:26:16.007Z,4.37
2017-12-31T22:28:43.449Z,5.07
2017-12-31T22:31:10.888Z,6.87
2017-12-31T22:33:38.285Z,5.37
2017-12-31T22:36:05.717Z,7.97
2017-12-31T22:38:33.182Z,6.10
2017-12-31T22:41:00.618Z,14.00
2017-12-31T22:43:28.131Z,6.63
2017-12-31T22:45:55.545Z,8.17
2017-12-31T22:48:22.969Z,63.60
2017-12-31T22:50:50.397Z,32.13
2017-12-31T22:53:18.656Z,16.80
2017-12-31T22:55:46.621Z,167.33
2017-12-31T22:58:16.240Z,163.60
2017-12-31T23:00:43.738Z,52.10
2017-12-31T23:03:11.165Z,169.17
2017-12-31T23:05:40.137Z,219.43
2017-12-31T23:08:08.337Z,219.70
2017-12-31T23:10:36.529Z,408.43
2017-12-31T23:13:03.953Z,469.30
2017-12-31T23:15:31.378Z,566.83
2017-12-31T23:17:58.844Z,423.13
2017-12-31T23:20:26.258Z,447.67
2017-12-31T23:22:53.706Z,327.83
2017-12-31T23:25:21.917Z,260.30
2017-12-31T23:27:49.457Z,283.67
2017-12-31T23:30:16.927Z,196.30
2017-12-31T23:32:44.385Z,189.40
2017-12-31T23:35:11.843Z,122.73
2017-12-31T23:37:39.258Z,81.67
2017-12-31T23:40:06.688Z,88.30
2017-12-31T23:42:34.112Z,94.90
2017-12-31T23:45:02.309Z,98.93
2017-12-31T23:47:30.498Z,103.13
2017-12-31T23:49:58.678Z,82.67
2017-12-31T23:52:26.973Z,49.00
2017-12-31T23:54:55.207Z,57.53
2017-12-31T23:57:22.682Z,56.60
2017-12-31T23:59:50.113Z,69.43
